AirNav   Bose ProFlight Aviation Headset
 
 860 users online  

OL07 Carnegie Municipal Hospital Heliport
Carnegie, Oklahoma, USA

GOING TO CARNEGIE?


FAA INFORMATION EFFECTIVE 16 AUGUST 2018

Location

FAA Identifier: OL07
Lat/Long: 35-06-28.5200N / 098-36-18.4000W
35-06.475333N / 098-36.306667W
35.1079222 / -98.6051111
(estimated)
Elevation: 1234 ft. / 376 m (estimated)
Variation: 08E (1985)
Time zone: UTC -5 (UTC -6 during Standard Time)
Zip code: 73015

Heliport Operations

Heliport use: Private use, MEDICAL
Activation date: 07/1987
Control tower: no
ARTCC: FORT WORTH CENTER
FSS: MC ALESTER FLIGHT SERVICE STATION
Attendance: UNATNDD
Segmented circle: no
Lights: SS-SR

Nearby radio navigation aids

VOR radial/distance  VOR name  Freq  Var
HBRr047/26.8HOBART VORTAC111.8010E
BFVr100/30.5BURNS FLAT VORTAC110.0005E
LAWr337/37.9LAWTON VOR/DME109.4009E

 
NDB name  Hdg/Dist  Freq  Var  ID
TRAIL324/22.038809EOFZ --- ..-. --..
POST334/31.542508EPFL .--. ..-. .-..

Heliport Services

Runway Information

Helipad H1

Dimensions: 75 x 75 ft. / 23 x 23 m
Surface: asphalt
Runway edge lights: PERIMETER LGTS.
Latitude: 35-06.475333N
Longitude: 098-36.306667W
Elevation: 1234.0 ft.
Traffic pattern: leftleft

Heliport Ownership and Management from official FAA records

Ownership: Publicly-owned
Owner: CARNEGIE MUNICIPAL HOSPITAL
102 NORTH BROADWAY
CARNEGIE, OK 73015
Phone 580-654-1050
Manager: DORIS BROWN,ADMIN
PO BOX 97
CARNEGIE, OK 73015
Phone 580-654-1050

Instrument Procedures

There are no published instrument procedures at OL07.

Some nearby airports with instrument procedures:

KHBR - Hobart Regional Airport (23 nm W)
KOJA - Thomas P Stafford Airport (26 nm N)
2O8 - Hinton Municipal Airport (27 nm NE)
KFSI - Henry Post Army Airfield (Fort Sill) (29 nm S)
KCLK - Clinton Regional Airport (30 nm NW)
 
Loc | Ops | Rwys | IFR | FBO | Links
Com | Nav | Svcs | Stats | Notes


 
Area around OL07 (Carnegie Municipal Hospital Heliport)
 
Road maps at: MapQuest Bing Google
 
Aerial photo
No photo
 
Sectional chart

 
Airport distance calculator
Flying to Carnegie Municipal Hospital Heliport? Find the distance to fly.

From to OL07

Sunrise and sunset
Times for 18-Aug-2018
 Local
(UTC-5)
 Zulu
(UTC)
Morning civil twilight06:3111:31
Sunrise06:5811:58
Sunset20:1901:19
Evening civil twilight20:4601:46

Current date and time
Zulu (UTC)  19-Aug-2018 01:59:12
Local (UTC-5)  18-Aug-2018 20:59:12
 
METAR
KHBR 
23nm W 
190153Z AUTO 14005KT 10SM BKN120 28/21 A2993 RMK AO2 SLP116 T02780211
KOJA 
26nm N 
190135Z AUTO 11003KT 10SM SCT090 BKN120 27/22 A2994 RMK AO2
KFSI 
30nm S 
190056Z AUTO 14005KT 10SM BKN150 28/23 A2988 RMK AO2 SLP109 T02830227
KCHK 
31nm E 
190135Z AUTO 07004KT 10SM BKN110 27/23 A2988 RMK AO2 T02680230
KCSM 
33nm NW 
190153Z AUTO 10004KT 10SM BKN110 27/21 A2996 RMK AO2 SLP120 T02670206
KLAW 
35nm S 
190153Z AUTO 00000KT 10SM CLR 26/22 A2991 RMK AO2 SLP115 T02560217
KRQO 
37nm NE 
190135Z AUTO 07005KT OVC110 27/22 A2993 RMK AO2 PWINO T02740219
KLTS 
42nm SW 
190056Z AUTO 14009KT 10SM CLR 30/20 M RMK AO2 SLPNO T02960201 CHINO RWY35L $
KELK 
43nm NW 
190135Z AUTO 00000KT 10SM CLR 26/20 A2995 RMK AO2 LTG DSNT S AND NW T02630204
KAXS 
43nm SW 
190135Z AUTO 11006KT 10SM BKN120 28/21 A2993 RMK AO2 LTG DSNT S T02840212
TAF
NOTAMs
Click for the latest NOTAMs
NOTAMs are issued by the DoD/FAA and will open in a separate window not controlled by AirNav.

 

 
 

Would you like to see your business listed on this page?

 If your business provides an interesting product or service to pilots, flight crews, aircraft, or users of the Carnegie Municipal Hospital Heliport, you should consider listing it here.  To start the listing process, click on the button below
 
Add a business
 

Other Pages about Carnegie Municipal Hospital Heliport

Update a link
 
Copyright © AirNav, LLC. All rights reserved. Privacy Policy  Contact